Time;durP1;ratioP1;P1;durP2;ratioP2;P2;SDS_P1;SDS_P2;PMS_P1;PMS_P2;Temp;Humidity;BMP_temperature;BMP_pressure;BME280_temperature;BME280_humidity;BME280_pressure;Samples;Min_cycle;Max_cycle;Signal;HPM_P1;HPM_P2
2022/11/23 00:01:38;;;;;;;6.28;4.15;;;19.30;55.80;;;;;;6219617;28;20034;-69
2022/11/23 00:04:38;;;;;;;6.55;4.20;;;19.30;55.70;;;;;;6235463;28;20033;-67
2022/11/23 00:07:39;;;;;;;6.45;4.28;;;19.30;55.80;;;;;;6243369;28;20029;-68
2022/11/23 00:10:39;;;;;;;6.40;4.47;;;19.30;55.70;;;;;;6232503;28;20029;-67
2022/11/23 00:13:41;;;;;;;6.53;4.20;;;19.30;55.70;;;;;;6236135;28;20516;-67
2022/11/23 00:16:41;;;;;;;6.82;4.30;;;19.30;55.70;;;;;;6219293;28;20460;-67
2022/11/23 00:19:42;;;;;;;6.78;4.72;;;19.30;55.70;;;;;;6233393;28;20025;-67
2022/11/23 00:22:43;;;;;;;5.78;4.15;;;19.30;55.80;;;;;;6243897;28;20025;-68
2022/11/23 00:25:45;;;;;;;6.60;4.07;;;19.30;55.70;;;;;;6220671;28;20646;-68
2022/11/23 00:28:46;;;;;;;6.70;4.93;;;19.30;55.70;;;;;;6224492;28;20068;-67
2022/11/23 00:31:47;;;;;;;6.10;4.50;;;19.30;56.40;;;;;;6242517;28;20872;-68
2022/11/23 00:34:47;;;;;;;5.25;3.80;;;19.30;55.70;;;;;;6229772;28;20513;-68
2022/11/23 00:37:48;;;;;;;6.32;4.32;;;19.30;55.70;;;;;;6218647;28;20101;-67
2022/11/23 00:40:49;;;;;;;5.43;4.13;;;19.30;55.70;;;;;;6239366;28;20109;-68
2022/11/23 00:43:49;;;;;;;6.10;4.18;;;19.30;55.70;;;;;;6238913;28;20021;-67
2022/11/23 00:46:50;;;;;;;6.45;4.20;;;19.30;55.70;;;;;;6218422;28;20045;-67
2022/11/23 00:49:50;;;;;;;5.50;4.20;;;19.30;55.70;;;;;;6229862;28;20029;-68
2022/11/23 00:52:51;;;;;;;6.40;4.43;;;19.30;55.70;;;;;;6242915;28;20056;-68
2022/11/23 00:55:53;;;;;;;6.60;4.60;;;19.30;55.70;;;;;;6222646;28;20551;-68
2022/11/23 00:58:56;;;;;;;6.82;3.92;;;19.30;55.70;;;;;;6220538;28;20107;-68
2022/11/23 01:01:56;;;;;;;5.03;3.88;;;19.30;55.70;;;;;;6242781;28;20026;-69
2022/11/23 01:04:57;;;;;;;5.32;4.22;;;19.30;55.70;;;;;;6232072;28;20251;-68
2022/11/23 01:07:57;;;;;;;6.82;4.57;;;19.30;55.70;;;;;;6218584;28;20097;-67
2022/11/23 01:11:00;;;;;;;5.05;3.70;;;19.30;55.70;;;;;;6220601;28;20029;-67
2022/11/23 01:14:01;;;;;;;6.00;4.10;;;19.30;55.70;;;;;;6219451;28;20026;-68
2022/11/23 01:17:01;;;;;;;6.18;4.13;;;19.30;55.70;;;;;;6242042;28;20542;-68
2022/11/23 01:20:02;;;;;;;6.20;4.18;;;19.30;55.60;;;;;;6233180;28;20065;-68
2022/11/23 01:23:03;;;;;;;5.88;4.45;;;19.30;56.40;;;;;;6218078;28;20049;-68
2022/11/23 01:26:06;;;;;;;6.78;3.95;;;19.30;55.70;;;;;;6234325;28;20490;-67
2022/11/23 01:29:07;;;;;;;4.63;3.80;;;19.30;55.70;;;;;;6241892;28;20052;-68
2022/11/23 01:32:07;;;;;;;5.20;3.83;;;19.30;55.70;;;;;;6218224;28;20502;-68
2022/11/23 01:35:08;;;;;;;6.80;3.78;;;19.30;55.70;;;;;;6225252;28;20041;-68
2022/11/23 01:38:09;;;;;;;6.20;4.25;;;19.30;55.70;;;;;;6242524;28;20100;-68
2022/11/23 01:41:15;;;;;;;5.75;3.90;;;19.30;55.70;;;;;;6226335;28;20038;-68
2022/11/23 01:44:33;;;;;;;5.75;3.63;;;19.30;55.70;;;;;;6220316;28;20029;-68
2022/11/23 01:47:34;;;;;;;6.47;4.32;;;19.30;55.70;;;;;;6222429;28;20417;-69
2022/11/23 01:50:36;;;;;;;6.43;4.00;;;19.30;55.70;;;;;;6232014;28;20476;-68
2022/11/23 01:53:38;;;;;;;5.32;3.80;;;19.30;55.70;;;;;;6247122;28;20048;-67
2022/11/23 01:56:49;;;;;;;5.25;3.85;;;19.30;55.70;;;;;;6229427;28;20040;-68
2022/11/23 01:59:51;;;;;;;5.78;4.03;;;19.30;55.70;;;;;;6224404;28;20354;-67
2022/11/23 02:02:58;;;;;;;6.18;4.10;;;19.30;55.70;;;;;;6246845;28;20029;-68
2022/11/23 02:06:03;;;;;;;5.47;3.90;;;19.30;55.70;;;;;;6235720;28;20488;-68
2022/11/23 02:09:04;;;;;;;;;;;19.30;55.70;;;;;;6223194;28;20030;-68
2022/11/23 02:12:11;;;;;;;6.20;4.30;;;19.30;55.70;;;;;;6226853;28;20462;-68
2022/11/23 02:15:12;;;;;;;5.72;3.88;;;19.30;55.70;;;;;;6224593;28;20550;-68
2022/11/23 02:18:25;;;;;;;5.65;3.78;;;19.30;55.70;;;;;;6246481;28;20030;-68
2022/11/23 02:21:27;;;;;;;6.20;4.35;;;19.30;55.70;;;;;;6234089;28;20536;-67
2022/11/23 02:24:34;;;;;;;4.93;3.80;;;19.30;55.70;;;;;;6221403;28;20389;-68
2022/11/23 02:27:35;;;;;;;5.63;3.97;;;19.30;55.70;;;;;;6242994;28;20464;-68
2022/11/23 02:30:38;;;;;;;5.47;3.85;;;19.30;55.70;;;;;;6241579;28;20022;-68
2022/11/23 02:33:40;;;;;;;5.43;4.32;;;19.30;55.70;;;;;;6221931;28;20037;-67
2022/11/23 02:36:53;;;;;;;5.70;3.97;;;19.30;55.70;;;;;;6233419;28;20042;-67
2022/11/23 02:39:55;;;;;;;5.32;3.95;;;19.30;55.70;;;;;;6245760;28;20025;-68
2022/11/23 02:42:56;;;;;;;7.35;3.92;;;19.30;55.70;;;;;;6224401;28;20029;-67
2022/11/23 02:46:01;;;;;;;5.90;4.13;;;19.30;55.70;;;;;;6225928;28;20038;-69
2022/11/23 02:49:01;;;;;;;5.88;3.75;;;19.30;55.70;;;;;;6245840;28;20033;-68
2022/11/23 02:52:03;;;;;;;5.78;3.78;;;19.30;55.60;;;;;;6232003;28;20056;-68
2022/11/23 02:55:03;;;;;;;6.18;4.18;;;19.30;55.60;;;;;;6219895;28;20046;-68
2022/11/23 02:58:05;;;;;;;6.07;3.67;;;19.30;55.60;;;;;;6241745;28;20052;-68
2022/11/23 03:01:06;;;;;;;5.25;3.75;;;19.30;55.60;;;;;;6241239;28;20052;-69
2022/11/23 03:04:07;;;;;;;6.25;4.20;;;19.30;55.70;;;;;;6221132;28;20057;-68
2022/11/23 03:07:07;;;;;;;4.80;3.55;;;19.30;55.70;;;;;;6232632;28;20022;-68
2022/11/23 03:10:08;;;;;;;5.22;3.70;;;19.30;55.60;;;;;;6236689;28;20025;-69
2022/11/23 03:13:09;;;;;;;5.63;3.80;;;19.30;55.70;;;;;;6240088;28;20044;-68
2022/11/23 03:16:10;;;;;;;5.80;4.07;;;19.30;55.70;;;;;;6242201;28;20025;-68
2022/11/23 03:19:10;;;;;;;5.47;3.70;;;19.30;55.70;;;;;;6220679;28;20026;-69
2022/11/23 03:22:11;;;;;;;5.35;3.70;;;19.30;55.70;;;;;;6230825;28;20496;-68
2022/11/23 03:25:11;;;;;;;5.32;3.58;;;19.30;55.70;;;;;;6244333;28;20116;-68
2022/11/23 03:28:12;;;;;;;5.53;3.72;;;19.30;55.70;;;;;;6226894;28;20026;-68
2022/11/23 03:31:13;;;;;;;5.22;3.90;;;19.30;55.70;;;;;;6221281;28;20030;-68
2022/11/23 03:34:13;;;;;;;5.68;3.88;;;19.30;55.70;;;;;;6244834;28;20545;-68
2022/11/23 03:37:14;;;;;;;5.20;3.60;;;19.30;55.70;;;;;;6235780;28;20045;-68
2022/11/23 03:40:14;;;;;;;4.78;3.83;;;19.30;55.70;;;;;;6219832;28;20053;-67
2022/11/23 03:43:15;;;;;;;5.25;3.80;;;19.30;55.70;;;;;;6235960;28;20041;-68
2022/11/23 03:46:16;;;;;;;5.07;3.67;;;19.30;55.70;;;;;;6244224;28;20025;-67
2022/11/23 03:49:16;;;;;;;4.95;3.70;;;19.30;56.40;;;;;;6220652;28;20030;-68
2022/11/23 03:52:17;;;;;;;5.10;3.65;;;19.30;56.40;;;;;;6226258;28;20112;-67
2022/11/23 03:55:17;;;;;;;5.15;3.65;;;19.30;55.70;;;;;;6244476;28;20552;-67
2022/11/23 03:58:18;;;;;;;5.45;3.80;;;19.30;55.70;;;;;;6229296;28;20030;-68
2022/11/23 04:01:19;;;;;;;4.95;3.63;;;19.30;56.40;;;;;;6219043;28;20038;-67
2022/11/23 04:04:20;;;;;;;5.13;3.17;;;19.30;55.70;;;;;;6241700;28;20037;-68
2022/11/23 04:07:20;;;;;;;5.18;3.78;;;19.30;55.70;;;;;;6238286;28;20501;-68
2022/11/23 04:10:21;;;;;;;5.20;3.78;;;19.30;55.70;;;;;;6229339;28;20032;-68
2022/11/23 04:13:21;;;;;;;5.25;3.78;;;19.30;55.70;;;;;;6230520;28;20025;-68
2022/11/23 04:16:22;;;;;;;4.82;3.45;;;19.30;55.70;;;;;;6219236;28;20038;-69
2022/11/23 04:19:23;;;;;;;5.63;4.05;;;19.30;55.60;;;;;;6240026;28;20026;-68
2022/11/23 04:22:23;;;;;;;5.80;3.92;;;19.30;55.70;;;;;;6239582;28;20021;-68
2022/11/23 04:25:24;;;;;;;3.97;3.30;;;19.30;55.70;;;;;;6219207;28;20025;-67
2022/11/23 04:28:24;;;;;;;5.22;3.60;;;19.30;55.70;;;;;;6230145;28;20036;-68
2022/11/23 04:31:25;;;;;;;4.75;3.38;;;19.30;55.70;;;;;;6243501;28;20351;-68
2022/11/23 04:34:26;;;;;;;5.70;3.90;;;19.30;55.60;;;;;;6223797;28;20072;-68
2022/11/23 04:37:26;;;;;;;3.78;3.15;;;19.30;55.70;;;;;;6221494;28;20026;-68
2022/11/23 04:40:28;;;;;;;5.03;3.50;;;19.30;55.60;;;;;;6243592;28;20025;-68
2022/11/23 04:43:28;;;;;;;5.05;3.60;;;19.30;55.70;;;;;;6233247;28;20018;-69
2022/11/23 04:46:29;;;;;;;4.53;3.22;;;19.30;55.70;;;;;;6218474;28;20771;-68
2022/11/23 04:49:29;;;;;;;4.97;3.72;;;19.30;55.70;;;;;;6236005;28;20067;-68
2022/11/23 04:52:30;;;;;;;4.82;3.58;;;19.30;55.70;;;;;;6242412;28;20049;-68
2022/11/23 04:55:31;;;;;;;5.18;3.55;;;19.30;55.70;;;;;;6218184;28;20042;-68
2022/11/23 04:58:31;;;;;;;6.97;4.38;;;19.30;55.70;;;;;;6226625;28;20034;-68
2022/11/23 05:01:32;;;;;;;5.65;3.80;;;19.30;55.60;;;;;;6242716;28;20474;-68
2022/11/23 05:04:33;;;;;;;4.75;3.40;;;19.30;55.60;;;;;;6227098;28;20026;-68
2022/11/23 05:07:34;;;;;;;5.00;3.55;;;19.30;55.60;;;;;;6218169;28;20022;-69
2022/11/23 05:10:36;;;;;;;4.15;3.22;;;19.30;55.60;;;;;;6230052;28;20038;-67
2022/11/23 05:13:36;;;;;;;3.92;3.25;;;19.30;55.60;;;;;;6224742;28;20021;-68
2022/11/23 05:16:37;;;;;;;4.68;3.10;;;19.30;55.60;;;;;;6242680;28;20040;-68
2022/11/23 05:19:37;;;;;;;4.75;3.45;;;19.30;55.60;;;;;;6228256;28;20053;-68
2022/11/23 05:22:38;;;;;;;5.20;3.58;;;19.30;55.60;;;;;;6217847;28;20097;-68
2022/11/23 05:25:39;;;;;;;4.15;2.90;;;19.30;55.60;;;;;;6240013;28;20021;-68
2022/11/23 05:28:39;;;;;;;4.72;3.42;;;19.30;55.60;;;;;;6237147;28;20026;-68
2022/11/23 05:31:40;;;;;;;5.55;3.65;;;19.30;55.60;;;;;;6218041;28;20492;-68
2022/11/23 05:34:41;;;;;;;5.38;3.50;;;19.30;55.60;;;;;;6230468;28;20061;-68
2022/11/23 05:37:41;;;;;;;4.35;3.38;;;19.30;55.60;;;;;;6242617;28;20033;-68
2022/11/23 05:40:44;;;;;;;4.55;3.28;;;19.30;55.60;;;;;;6222490;28;20571;-68
2022/11/23 05:43:44;;;;;;;4.53;3.35;;;19.30;55.60;;;;;;6221470;28;20021;-68
2022/11/23 05:46:45;;;;;;;5.55;3.60;;;19.30;55.60;;;;;;6242057;28;20053;-67
2022/11/23 05:49:45;;;;;;;4.32;3.22;;;19.30;55.60;;;;;;6230662;28;20045;-68
2022/11/23 05:52:46;;;;;;;4.47;3.38;;;19.30;55.60;;;;;;6217699;28;20065;-68
2022/11/23 05:55:47;;;;;;;4.88;3.40;;;19.30;55.60;;;;;;6236610;28;20045;-68
2022/11/23 05:58:48;;;;;;;4.60;3.20;;;19.30;55.60;;;;;;6220263;28;20501;-69
2022/11/23 06:01:48;;;;;;;5.40;3.83;;;19.30;55.60;;;;;;6217420;28;20065;-68
2022/11/23 06:04:49;;;;;;;5.93;3.80;;;19.30;55.60;;;;;;6226120;28;20476;-67
2022/11/23 06:07:52;;;;;;;5.03;3.67;;;19.30;55.40;;;;;;6234831;28;20574;-68
2022/11/23 06:10:53;;;;;;;12.30;3.88;;;19.40;55.50;;;;;;6225318;28;20474;-68
2022/11/23 06:13:53;;;;;;;6.60;3.20;;;19.40;55.50;;;;;;6216942;28;20346;-68
2022/11/23 06:16:54;;;;;;;5.22;3.33;;;19.40;55.50;;;;;;6238667;28;20485;-68
2022/11/23 06:19:54;;;;;;;5.97;3.60;;;19.40;55.50;;;;;;6239763;28;20051;-67
2022/11/23 06:22:55;;;;;;;4.68;3.17;;;19.40;55.40;;;;;;6240741;28;20053;-68
2022/11/23 06:26:00;;;;;;;5.07;3.42;;;19.40;55.60;;;;;;6239037;28;20033;-68
2022/11/23 06:29:01;;;;;;;4.78;3.35;;;19.40;55.60;;;;;;6241054;28;20215;-67
2022/11/23 06:32:01;;;;;;;4.55;3.33;;;19.40;55.60;;;;;;6228996;28;20499;-68
2022/11/23 06:35:02;;;;;;;4.45;3.30;;;19.40;55.60;;;;;;6237731;28;20048;-68
2022/11/23 06:38:03;;;;;;;5.15;3.17;;;19.40;55.70;;;;;;6227062;28;20049;-68
2022/11/23 06:41:03;;;;;;;5.03;3.50;;;19.40;56.30;;;;;;6235987;28;20442;-68
2022/11/23 06:44:05;;;;;;;6.13;3.38;;;19.40;55.70;;;;;;6245347;28;20071;-67
2022/11/23 06:47:05;;;;;;;4.70;3.25;;;19.40;55.80;;;;;;6222011;28;20056;-68
2022/11/23 06:50:06;;;;;;;5.07;3.45;;;19.40;55.70;;;;;;6225868;28;20219;-68
2022/11/23 06:53:11;;;;;;;4.28;3.20;;;19.40;55.70;;;;;;6220663;28;20046;-68
2022/11/23 06:56:11;;;;;;;3.55;2.42;;;19.40;55.80;;;;;;6229493;28;20034;-68
2022/11/23 06:59:12;;;;;;;5.35;3.50;;;19.40;55.80;;;;;;6233690;28;20055;-68
2022/11/23 07:02:13;;;;;;;4.85;3.50;;;19.40;55.80;;;;;;6221201;28;20045;-68
2022/11/23 07:05:14;;;;;;;4.72;3.10;;;19.40;55.80;;;;;;6204575;28;20100;-69
2022/11/23 07:08:14;;;;;;;4.85;3.33;;;19.40;55.80;;;;;;6221270;28;20022;-68
2022/11/23 07:11:15;;;;;;;5.53;3.22;;;19.40;55.80;;;;;;6233421;28;20376;-68
2022/11/23 07:14:16;;;;;;;3.83;2.90;;;19.40;55.80;;;;;;6246254;28;20026;-66
2022/11/23 07:17:16;;;;;;;4.47;3.47;;;19.40;55.80;;;;;;6210225;28;20037;-68
2022/11/23 07:20:17;;;;;;;5.47;3.78;;;19.40;55.80;;;;;;6229027;28;20026;-68
2022/11/23 07:23:17;;;;;;;5.55;3.50;;;19.40;55.80;;;;;;6203717;28;20033;-68
2022/11/23 07:26:18;;;;;;;4.55;3.50;;;19.40;55.80;;;;;;6232198;28;20033;-67
2022/11/23 07:29:18;;;;;;;6.55;3.17;;;19.40;55.80;;;;;;6246153;28;20037;-68
2022/11/23 07:32:19;;;;;;;4.35;3.28;;;19.40;55.80;;;;;;6227427;28;20042;-68
2022/11/23 07:35:20;;;;;;;4.85;3.38;;;19.40;55.70;;;;;;6221954;28;20025;-68
2022/11/23 07:38:20;;;;;;;5.47;3.70;;;19.40;55.70;;;;;;6228501;28;20644;-68
2022/11/23 07:41:21;;;;;;;4.13;3.00;;;19.40;55.70;;;;;;6235921;28;20449;-68
2022/11/23 07:44:22;;;;;;;5.57;3.95;;;19.40;55.70;;;;;;6219871;28;20029;-68
2022/11/23 07:47:22;;;;;;;3.92;3.20;;;19.50;55.70;;;;;;6222088;28;20049;-68
2022/11/23 07:50:23;;;;;;;6.50;3.42;;;19.50;55.60;;;;;;6227155;28;20120;-68
2022/11/23 07:53:24;;;;;;;5.28;3.65;;;19.50;55.60;;;;;;6226937;28;20420;-67
2022/11/23 07:56:24;;;;;;;4.47;3.35;;;19.50;55.70;;;;;;6232537;28;20038;-66
2022/11/23 07:59:25;;;;;;;5.00;2.97;;;19.50;55.70;;;;;;6241091;28;20239;-67
2022/11/23 08:02:25;;;;;;;4.32;3.17;;;19.50;55.70;;;;;;6231533;28;20037;-67
2022/11/23 08:05:26;;;;;;;4.38;3.10;;;19.50;55.70;;;;;;6246390;28;20368;-68
2022/11/23 08:08:27;;;;;;;5.95;3.63;;;19.50;55.70;;;;;;6223158;28;20030;-67
2022/11/23 08:11:27;;;;;;;6.57;3.70;;;19.50;55.70;;;;;;6234185;28;20121;-67
2022/11/23 08:14:28;;;;;;;5.95;3.83;;;19.50;55.70;;;;;;6221564;28;20025;-68
2022/11/23 08:17:29;;;;;;;4.68;3.30;;;19.50;55.60;;;;;;6235204;28;20026;-67
2022/11/23 08:20:30;;;;;;;6.43;3.90;;;19.50;55.60;;;;;;6246151;28;20044;-68
2022/11/23 08:23:31;;;;;;;5.30;3.42;;;19.50;55.60;;;;;;6224379;28;20094;-68
2022/11/23 08:26:32;;;;;;;4.82;3.80;;;19.50;55.70;;;;;;6226124;28;20100;-67
2022/11/23 08:29:32;;;;;;;6.30;3.60;;;19.50;55.50;;;;;;6245298;28;20366;-68
2022/11/23 08:32:33;;;;;;;5.53;4.13;;;19.50;55.60;;;;;;6233696;28;20465;-69
2022/11/23 08:35:39;;;;;;;5.10;3.30;;;19.50;55.50;;;;;;6221194;28;20151;-68
2022/11/23 08:38:39;;;;;;;4.88;3.58;;;19.50;55.50;;;;;;6240714;28;20107;-68
2022/11/23 08:41:40;;;;;;;5.25;3.67;;;19.50;55.50;;;;;;6242599;28;20022;-68
2022/11/23 08:44:41;;;;;;;5.38;3.70;;;19.50;55.60;;;;;;6220876;28;20025;-68
2022/11/23 08:47:42;;;;;;;5.18;3.30;;;19.50;55.50;;;;;;6232197;28;20036;-67
2022/11/23 08:50:43;;;;;;;4.90;3.53;;;19.50;55.40;;;;;;6245282;28;20484;-68
2022/11/23 08:53:43;;;;;;;4.20;3.45;;;19.50;55.40;;;;;;6225762;28;20096;-68
2022/11/23 08:56:44;;;;;;;4.70;2.97;;;19.50;55.50;;;;;;6222678;28;20034;-68
2022/11/23 08:59:45;;;;;;;5.20;3.30;;;19.50;55.50;;;;;;6245725;28;20028;-68
2022/11/23 09:02:45;;;;;;;6.40;3.60;;;19.50;55.50;;;;;;6235965;28;20026;-67
2022/11/23 09:05:46;;;;;;;5.45;3.60;;;19.50;55.50;;;;;;6221659;28;20021;-68
2022/11/23 09:08:46;;;;;;;5.28;3.72;;;19.50;55.50;;;;;;6237828;28;20034;-68
2022/11/23 09:11:47;;;;;;;5.65;3.58;;;19.50;55.50;;;;;;6223979;28;20057;-68
2022/11/23 09:14:48;;;;;;;7.22;3.20;;;19.50;55.60;;;;;;6244771;28;20075;-68
2022/11/23 09:17:48;;;;;;;5.10;3.45;;;19.50;55.40;;;;;;6237187;28;20018;-68
2022/11/23 09:20:49;;;;;;;5.32;3.78;;;19.50;55.50;;;;;;6221288;28;20420;-68
2022/11/23 09:23:49;;;;;;;5.18;3.53;;;19.50;55.50;;;;;;6236680;28;20676;-69
2022/11/23 09:26:50;;;;;;;4.45;3.30;;;19.50;55.50;;;;;;6244749;28;20342;-68
2022/11/23 09:29:50;;;;;;;5.45;3.63;;;19.50;55.50;;;;;;6222230;28;20032;-68
2022/11/23 09:32:51;;;;;;;5.47;3.50;;;19.50;55.50;;;;;;6225446;28;20026;-68
2022/11/23 09:36:00;;;;;;;4.20;3.13;;;19.50;55.50;;;;;;6244805;28;20395;-68
2022/11/23 09:39:00;;;;;;;5.40;3.53;;;19.50;55.50;;;;;;6230125;28;20445;-68
2022/11/23 09:42:09;;;;;;;4.50;3.17;;;19.50;55.50;;;;;;6220932;28;20018;-69
2022/11/23 09:45:24;;;;;;;5.55;3.80;;;19.50;55.50;;;;;;6243772;28;20037;-68
2022/11/23 09:48:50;;;;;;;5.07;3.40;;;19.60;55.60;;;;;;6236258;28;20551;-68
2022/11/23 09:51:55;;;;;;;5.35;3.78;;;19.50;55.60;;;;;;6220631;28;20133;-68
2022/11/23 09:55:02;;;;;;;5.20;3.50;;;19.50;55.50;;;;;;6240010;28;20106;-68
2022/11/23 09:58:05;;;;;;;4.15;2.97;;;19.50;55.50;;;;;;6240299;28;20030;-68
2022/11/23 10:01:10;;;;;;;4.28;3.40;;;19.60;55.60;;;;;;6220418;28;20030;-67
2022/11/23 10:04:17;;;;;;;4.53;3.25;;;19.60;55.70;;;;;;6233656;28;20472;-68
2022/11/23 10:07:23;;;;;;;6.28;3.17;;;19.60;55.60;;;;;;6230786;28;20066;-68
2022/11/23 10:10:44;;;;;;;4.90;3.17;;;19.60;55.60;;;;;;6235403;28;20025;-67
2022/11/23 10:13:55;;;;;;;5.15;3.22;;;19.60;55.60;;;;;;6235599;28;20124;-68
2022/11/23 10:17:15;;;;;;;6.55;3.83;;;19.60;55.60;;;;;;6248826;28;20115;-68
2022/11/23 10:20:16;;;;;;;5.05;3.53;;;19.60;55.70;;;;;;6229291;28;20049;-68
2022/11/23 10:23:45;;;;;;;4.03;3.03;;;19.60;55.70;;;;;;6227661;28;20025;-68
2022/11/23 10:26:49;;;;;;;8.13;3.38;;;19.60;55.70;;;;;;6248798;28;20029;-68
2022/11/23 10:29:53;;;;;;;7.35;3.47;;;19.60;55.70;;;;;;6234080;28;20026;-68
2022/11/23 10:33:21;;;;;;;6.18;3.67;;;19.60;55.70;;;;;;6224173;28;20473;-68
2022/11/23 10:36:22;;;;;;;6.00;3.45;;;19.60;55.60;;;;;;6219961;28;20053;-69
2022/11/23 10:39:25;;;;;;;6.05;3.33;;;19.60;56.30;;;;;;6223936;28;20393;-69
2022/11/23 10:42:39;;;;;;;4.88;2.90;;;19.60;55.70;;;;;;6223729;28;20022;-68
2022/11/23 10:45:39;;;;;;;4.70;3.33;;;19.60;55.60;;;;;;6243172;28;20479;-69
2022/11/23 10:48:40;;;;;;;7.80;3.58;;;19.60;55.60;;;;;;6245759;28;20069;-68
2022/11/23 10:51:48;;;;;;;6.43;3.35;;;19.60;55.60;;;;;;6224208;28;20084;-68
2022/11/23 10:54:54;;;;;;;4.20;3.00;;;19.60;55.60;;;;;;6235229;28;20050;-68
2022/11/23 10:57:55;;;;;;;10.05;3.28;;;19.60;55.60;;;;;;6248290;28;20032;-69
2022/11/23 11:00:59;;;;;;;5.78;3.42;;;19.60;55.60;;;;;;6229010;28;20044;-68
2022/11/23 11:04:03;;;;;;;6.43;3.50;;;19.60;56.30;;;;;;6226536;28;20084;-68
2022/11/23 11:07:22;;;;;;;5.95;3.22;;;19.60;55.60;;;;;;6247984;28;20056;-68
2022/11/23 11:10:42;;;;;;;4.25;3.17;;;19.60;55.70;;;;;;6238075;28;20022;-68
2022/11/23 11:13:45;;;;;;;4.72;3.33;;;19.60;55.70;;;;;;6223054;28;20041;-67
2022/11/23 11:16:51;;;;;;;5.05;3.55;;;19.60;55.70;;;;;;6246729;28;20119;-68
2022/11/23 11:19:52;;;;;;;3.67;2.72;;;19.60;55.80;;;;;;6240950;28;20080;-68
2022/11/23 11:22:57;;;;;;;4.38;3.30;;;19.60;55.80;;;;;;6223228;28;20097;-66
2022/11/23 11:26:21;;;;;;;4.53;3.22;;;19.60;55.80;;;;;;6222488;28;20034;-68
2022/11/23 11:29:44;;;;;;;4.85;3.10;;;19.60;55.90;;;;;;6225104;28;20026;-68
2022/11/23 11:33:00;;;;;;;3.75;2.80;;;19.60;55.90;;;;;;6243911;28;20401;-67
2022/11/23 11:36:03;;;;;;;3.95;2.97;;;19.60;56.00;;;;;;6232180;28;20457;-69
2022/11/23 11:39:11;;;;;;;3.97;2.72;;;19.60;56.00;;;;;;6223038;28;20076;-68
2022/11/23 11:42:26;;;;;;;4.20;3.03;;;19.60;55.90;;;;;;6247207;28;20046;-67
2022/11/23 11:45:36;;;;;;;3.97;3.00;;;19.60;56.00;;;;;;6237609;28;20041;-68
2022/11/23 11:48:50;;;;;;;5.15;2.85;;;19.60;56.00;;;;;;6223064;28;20380;-67
2022/11/23 11:52:03;;;;;;;4.30;3.15;;;19.60;56.00;;;;;;6243205;28;20029;-67
2022/11/23 11:55:07;;;;;;;4.70;3.20;;;19.60;56.00;;;;;;6227511;28;20077;-68
2022/11/23 11:58:14;;;;;;;3.95;2.92;;;19.60;56.00;;;;;;6239700;28;20087;-68
2022/11/23 12:01:44;;;;;;;6.20;3.97;;;19.50;56.00;;;;;;6229172;28;20036;-67
2022/11/23 12:04:55;;;;;;;4.25;3.10;;;19.50;55.40;;;;;;6230567;28;20046;-67
2022/11/23 12:08:07;;;;;;;4.38;3.08;;;19.50;55.90;;;;;;6244487;28;20025;-67
2022/11/23 12:11:11;;;;;;;4.53;2.88;;;19.50;55.90;;;;;;6224891;28;20022;-68
2022/11/23 12:14:14;;;;;;;5.05;3.20;;;19.50;55.90;;;;;;6235711;28;20381;-66
2022/11/23 12:17:40;;;;;;;4.07;3.00;;;19.50;55.90;;;;;;6224656;28;20089;-67
2022/11/23 12:21:24;;;;;;;5.07;3.30;;;19.50;56.00;;;;;;6223698;28;20033;-68
2022/11/23 12:24:52;;;;;;;4.35;2.85;;;19.50;56.00;;;;;;6209988;28;20456;-67
2022/11/23 12:28:00;;;;;;;5.38;2.85;;;19.50;56.00;;;;;;6225999;28;20032;-68
2022/11/23 12:31:14;;;;;;;5.35;2.88;;;19.50;56.00;;;;;;6235994;28;20030;-68
2022/11/23 12:34:23;;;;;;;4.15;3.08;;;19.50;56.10;;;;;;6219907;28;20020;-68
2022/11/23 12:37:38;;;;;;;4.47;2.88;;;19.50;56.10;;;;;;6225268;28;20041;-67
2022/11/23 12:40:57;;;;;;;5.15;3.05;;;19.50;56.10;;;;;;6220384;28;20110;-67
2022/11/23 12:44:36;;;;;;;4.20;2.92;;;19.50;56.10;;;;;;6243996;28;20491;-66
2022/11/23 12:48:21;;;;;;;6.60;3.20;;;19.50;56.10;;;;;;6233202;28;20034;-67
2022/11/23 12:51:35;;;;;;;5.03;3.17;;;19.50;56.10;;;;;;6205470;28;20042;-67
2022/11/23 12:54:50;;;;;;;3.92;2.80;;;19.60;56.10;;;;;;6222951;28;20045;-67
2022/11/23 12:58:14;;;;;;;4.53;3.05;;;19.60;56.20;;;;;;6224737;28;20069;-68
2022/11/23 13:01:50;;;;;;;5.45;3.25;;;19.60;55.90;;;;;;6225308;28;20053;-68
2022/11/23 13:05:19;;;;;;;7.38;3.17;;;19.70;55.90;;;;;;6227877;28;20041;-68
2022/11/23 13:08:34;;;;;;;5.65;3.22;;;19.70;55.80;;;;;;6241320;28;20022;-67
2022/11/23 13:11:35;;;;;;;4.72;2.80;;;19.70;55.70;;;;;;6225698;28;20056;-68
2022/11/23 13:15:14;;;;;;;4.30;2.72;;;19.70;55.80;;;;;;6220213;28;20025;-67
2022/11/23 13:18:49;;;;;;;4.40;2.92;;;19.70;56.50;;;;;;6239071;28;20033;-67
2022/11/23 13:21:50;;;;;;;6.80;3.00;;;19.70;55.90;;;;;;6234822;28;20067;-67
2022/11/23 13:25:12;;;;;;;11.05;3.13;;;19.70;56.00;;;;;;6218750;28;20420;-67
2022/11/23 13:28:29;;;;;;;8.88;2.70;;;19.70;56.00;;;;;;6218156;28;20037;-67
2022/11/23 13:31:32;;;;;;;4.45;2.70;;;19.70;56.10;;;;;;6219236;28;20030;-68
2022/11/23 13:34:45;;;;;;;5.03;3.05;;;19.70;56.00;;;;;;6218834;28;20444;-67
2022/11/23 13:37:55;;;;;;;5.50;2.80;;;19.70;56.00;;;;;;6225394;28;20068;-68
2022/11/23 13:40:55;;;;;;;4.93;2.92;;;19.70;56.10;;;;;;6228392;28;20477;-67
2022/11/23 13:43:56;;;;;;;4.90;2.65;;;19.60;56.00;;;;;;6224951;28;20149;-67
2022/11/23 13:47:00;;;;;;;5.05;2.90;;;19.70;56.00;;;;;;6228978;28;20083;-67
2022/11/23 13:50:17;;;;;;;6.38;2.63;;;19.70;56.00;;;;;;6238019;28;20034;-67
2022/11/23 13:53:39;;;;;;;6.78;2.95;;;19.70;56.00;;;;;;6231915;28;20228;-68
2022/11/23 13:56:43;;;;;;;6.95;2.65;;;19.70;56.70;;;;;;6223161;28;20070;-67
2022/11/23 13:59:44;;;;;;;4.47;3.00;;;19.70;56.10;;;;;;6224004;28;20033;-68
2022/11/23 14:02:45;;;;;;;4.05;2.85;;;19.70;56.10;;;;;;6232957;28;20029;-68
2022/11/23 14:05:48;;;;;;;4.10;2.55;;;19.70;56.10;;;;;;6247289;28;20472;-68
2022/11/23 14:09:03;;;;;;;4.10;2.60;;;19.70;56.20;;;;;;6229838;28;20022;-68
2022/11/23 14:12:07;;;;;;;6.55;2.70;;;19.70;56.10;;;;;;6225323;28;20071;-67
2022/11/23 14:15:11;;;;;;;4.17;2.37;;;19.70;56.20;;;;;;6228075;28;20120;-68
2022/11/23 14:18:15;;;;;;;4.22;2.88;;;19.60;56.20;;;;;;6219293;28;20292;-67
2022/11/23 14:21:28;;;;;;;4.00;2.90;;;19.60;56.10;;;;;;6221156;28;20508;-67
2022/11/23 14:24:49;;;;;;;4.35;2.42;;;19.70;56.20;;;;;;6233376;28;20026;-68
2022/11/23 14:28:23;;;;;;;4.25;2.70;;;19.70;56.20;;;;;;6241155;28;20014;-68
2022/11/23 14:32:00;;;;;;;4.78;2.78;;;19.70;56.20;;;;;;6223064;28;20049;-67
2022/11/23 14:35:32;;;;;;;4.75;2.88;;;19.70;56.20;;;;;;6222068;28;20022;-68
2022/11/23 14:38:51;;;;;;;3.92;2.92;;;19.70;56.30;;;;;;6224277;28;20030;-68
2022/11/23 14:41:55;;;;;;;4.20;2.83;;;19.70;56.30;;;;;;6222424;28;20102;-68
2022/11/23 14:45:01;;;;;;;5.85;2.75;;;19.70;56.30;;;;;;6220729;28;20089;-69
2022/11/23 14:48:28;;;;;;;5.25;3.50;;;19.60;56.20;;;;;;6222248;28;20432;-68
2022/11/23 14:51:30;;;;;;;8.40;3.70;;;19.60;55.80;;;;;;6245148;28;20137;-68
2022/11/23 14:54:31;;;;;;;10.40;3.50;;;19.70;55.30;;;;;;6235443;28;20132;-67
2022/11/23 14:57:41;;;;;;;6.50;3.55;;;19.60;55.30;;;;;;6245960;28;20037;-67
2022/11/23 15:00:42;;;;;;;5.70;3.80;;;19.70;55.40;;;;;;6221657;28;20033;-68
2022/11/23 15:03:43;;;;;;;5.82;3.35;;;19.70;55.70;;;;;;6230376;28;20064;-67
2022/11/23 15:06:48;;;;;;;7.22;3.30;;;19.60;55.60;;;;;;6221717;28;20028;-67
2022/11/23 15:09:53;;;;;;;7.88;3.60;;;19.70;55.70;;;;;;6221445;28;20018;-67
2022/11/23 15:12:54;;;;;;;5.35;3.10;;;19.70;55.60;;;;;;6222325;28;20695;-67
2022/11/23 15:15:56;;;;;;;6.75;3.58;;;19.70;55.60;;;;;;6229093;28;20038;-68
2022/11/23 15:18:57;;;;;;;4.80;2.75;;;19.70;55.70;;;;;;6224846;28;20022;-67
2022/11/23 15:21:59;;;;;;;4.25;3.10;;;19.60;55.80;;;;;;6222176;28;20049;-68
2022/11/23 15:25:07;;;;;;;6.38;3.83;;;19.60;55.80;;;;;;6237530;28;20021;-68
2022/11/23 15:28:16;;;;;;;6.55;3.78;;;19.70;55.60;;;;;;6245235;28;20030;-67
2022/11/23 15:31:31;;;;;;;14.85;4.10;;;19.70;55.50;;;;;;6221739;28;20026;-68
2022/11/23 15:34:31;;;;;;;7.13;3.20;;;19.70;55.10;;;;;;6221266;28;20589;-68
2022/11/23 15:37:39;;;;;;;7.40;4.43;;;19.70;55.70;;;;;;6221920;28;20034;-68
2022/11/23 15:40:45;;;;;;;8.27;4.90;;;19.60;55.10;;;;;;6242050;28;20030;-68
2022/11/23 15:43:52;;;;;;;9.88;4.68;;;19.70;54.60;;;;;;6240995;28;20034;-68
2022/11/23 15:46:57;;;;;;;7.97;3.92;;;19.70;55.10;;;;;;6221081;28;20030;-68
2022/11/23 15:50:01;;;;;;;6.30;3.80;;;19.60;55.30;;;;;;6233551;28;20018;-67
2022/11/23 15:53:02;;;;;;;6.95;3.75;;;19.60;55.30;;;;;;6243941;28;20083;-66
2022/11/23 15:56:05;;;;;;;7.57;4.20;;;19.70;55.50;;;;;;6223109;28;20034;-68
2022/11/23 15:59:33;;;;;;;6.57;4.13;;;19.70;55.50;;;;;;6225459;28;20018;-67
2022/11/23 16:02:35;;;;;;;8.77;4.30;;;19.60;55.10;;;;;;6244581;28;20029;-68
2022/11/23 16:05:36;;;;;;;5.03;3.58;;;19.70;55.40;;;;;;6228171;28;20033;-67